Time;durP1;ratioP1;P1;durP2;ratioP2;P2;SDS_P1;SDS_P2;PMS_P1;PMS_P2;Temp;Humidity;BMP_temperature;BMP_pressure;BME280_temperature;BME280_humidity;BME280_pressure;Samples;Min_cycle;Max_cycle;Signal;HPM_P1;HPM_P2
2021/03/14 00:00:15;;;;;;;3.15;1.25;;;;;;;16.80;61.91;100162.31;6195678;23;20013;-81
2021/03/14 00:02:54;;;;;;;2.20;0.90;;;;;;;16.78;61.59;100177.88;6271404;23;20007;-81
2021/03/14 00:05:23;;;;;;;2.75;1.13;;;;;;;16.78;61.56;100175.28;6247236;23;20002;-81
2021/03/14 00:11:36;;;;;;;3.60;1.30;;;;;;;16.80;61.58;100189.16;6272357;22;20030;-81
2021/03/14 00:14:03;;;;;;;2.75;1.00;;;;;;;16.79;61.30;100186.56;6244740;22;20023;-81
2021/03/14 00:16:32;;;;;;;3.85;1.40;;;;;;;16.78;61.67;100185.69;6237760;23;20013;-81
2021/03/14 00:19:35;;;;;;;2.33;1.10;;;;;;;16.79;61.59;100186.56;6242579;22;19996;-81
2021/03/14 00:22:03;;;;;;;2.95;1.20;;;;;;;16.75;61.63;100188.34;6245133;22;20016;-81
2021/03/14 00:24:54;;;;;;;4.07;1.30;;;;;;;16.75;61.57;100196.13;6270567;22;20016;-81
2021/03/14 00:31:01;;;;;;;2.58;1.15;;;;;;;16.77;61.43;100199.56;6211447;23;20035;-80
2021/03/14 00:39:41;;;;;;;3.33;1.10;;;;;;;16.75;61.45;100206.53;6209515;22;20031;-80
2021/03/14 00:42:20;;;;;;;3.67;1.20;;;;;;;16.75;61.43;100218.66;6185289;23;20009;-80
2021/03/14 00:44:47;;;;;;;3.13;1.20;;;;;;;16.75;61.19;100221.25;6205795;23;20009;-80
2021/03/14 00:47:14;;;;;;;2.63;1.25;;;;;;;16.73;61.23;100223.88;6210783;23;19985;-81
2021/03/14 00:50:36;;;;;;;3.42;1.10;;;;;;;16.75;61.52;100227.31;6203699;22;20032;-80
2021/03/14 00:53:05;;;;;;;4.22;1.17;;;;;;;16.75;61.43;100235.13;6215127;22;20016;-80
2021/03/14 00:58:16;;;;;;;2.97;1.27;;;;;;;16.71;61.21;100236.03;6271689;22;20026;-81
2021/03/14 01:00:54;;;;;;;3.33;1.40;;;;;;;16.72;61.11;100242.94;6271721;23;20008;-80
2021/03/14 01:03:31;;;;;;;3.65;1.20;;;;;;;16.72;61.26;100249.88;6247972;23;20008;-81
2021/03/14 01:05:58;;;;;;;2.83;1.20;;;;;;;16.72;61.08;100253.31;6271450;23;20034;-80
2021/03/14 01:08:31;;;;;;;3.58;1.00;;;;;;;16.74;61.06;100253.31;6216512;23;20042;-80
2021/03/14 01:11:13;;;;;;;3.67;1.10;;;;;;;16.75;61.21;100262.84;6209957;23;20057;-80
2021/03/14 01:14:02;;;;;;;2.15;0.90;;;;;;;16.73;60.96;100260.25;6209371;23;20021;-81
2021/03/14 01:17:05;;;;;;;3.08;1.10;;;;;;;16.73;61.09;100262.00;6160714;23;19997;-80
2021/03/14 01:38:52;;;;;;;3.45;1.13;;;;;;;16.72;60.79;100286.25;6220023;22;20028;-81
2021/03/14 01:41:21;;;;;;;2.17;0.98;;;;;;;16.70;60.78;100288.91;6219261;23;20020;-81
2021/03/14 01:44:11;;;;;;;2.63;0.90;;;;;;;16.70;60.69;100290.59;6199514;23;20021;-80
2021/03/14 01:47:00;;;;;;;3.60;1.00;;;;;;;16.70;60.65;100295.81;6209702;23;20017;-80
2021/03/14 01:49:26;;;;;;;3.00;0.80;;;;;;;16.68;60.75;100295.84;6209361;23;20015;-80
2021/03/14 01:51:59;;;;;;;2.75;1.20;;;;;;;16.71;60.91;100302.75;6208024;23;20005;-80
2021/03/14 01:54:31;;;;;;;4.35;1.13;;;;;;;16.70;61.08;100306.19;6225233;22;20020;-81
2021/03/14 01:57:06;;;;;;;3.80;1.17;;;;;;;16.67;60.78;100302.75;6241222;23;19997;-81
2021/03/14 01:59:58;;;;;;;2.38;1.10;;;;;;;16.67;60.85;100313.16;6240251;22;20100;-81
2021/03/14 02:02:29;;;;;;;3.03;0.88;;;;;;;16.65;60.56;100309.72;6243742;22;20064;-80
2021/03/14 02:04:56;;;;;;;1.77;0.80;;;;;;;16.66;60.60;100314.06;6242233;23;20008;-81
2021/03/14 02:07:23;;;;;;;1.17;0.60;;;;;;;16.69;60.75;100325.28;6243790;23;19988;-80
2021/03/14 02:09:52;;;;;;;2.45;0.90;;;;;;;16.65;60.63;100322.69;6218228;23;20019;-81
2021/03/14 02:12:23;;;;;;;2.22;0.80;;;;;;;16.69;60.78;100326.13;6217194;23;19991;-81
2021/03/14 02:15:03;;;;;;;4.07;0.90;;;;;;;16.68;60.41;100332.22;6186408;23;20000;-81
2021/03/14 02:17:59;;;;;;;3.30;1.20;;;;;;;16.65;60.91;100321.84;6188055;23;20009;-81
2021/03/14 02:20:33;;;;;;;2.35;1.10;;;;;;;16.65;60.65;100335.69;6127024;23;20009;-81
2021/03/14 02:23:53;;;;;;;2.88;0.90;;;;;;;16.63;60.70;100329.66;6150178;23;20006;-81
2021/03/14 02:26:36;;;;;;;3.85;1.15;;;;;;;16.67;60.43;100344.31;6127181;23;20014;-81
2021/03/14 02:32:26;;;;;;;2.17;1.00;;;;;;;16.66;60.67;100346.97;6233400;22;20008;-81
2021/03/14 02:35:00;;;;;;;3.03;0.82;;;;;;;16.65;60.54;100346.09;6215701;23;20055;-81
2021/03/14 02:43:22;;;;;;;3.30;1.08;;;;;;;16.66;60.34;100349.56;6232265;22;20055;-78
2021/03/14 02:45:52;;;;;;;2.65;0.90;;;;;;;16.62;60.37;100348.75;6237823;22;20027;-79
2021/03/14 02:51:33;;;;;;;4.60;0.90;;;;;;;16.65;60.46;100350.44;6242110;23;20027;-80
2021/03/14 02:54:20;;;;;;;2.70;0.77;;;;;;;16.65;60.39;100360.81;6240944;23;20035;-81
2021/03/14 02:57:28;;;;;;;2.60;0.85;;;;;;;16.63;60.29;100362.59;6190195;23;20020;-81
2021/03/14 02:59:56;;;;;;;2.65;0.77;;;;;;;16.63;60.29;100363.44;6154356;23;20010;-81
2021/03/14 03:02:30;;;;;;;2.45;0.82;;;;;;;16.63;60.23;100365.19;6221853;22;20009;-81
2021/03/14 03:05:15;;;;;;;1.67;0.70;;;;;;;16.62;60.12;100377.31;6238206;22;20016;-80
2021/03/14 03:08:03;;;;;;;4.65;0.82;;;;;;;16.62;60.08;100374.72;6260538;22;19995;-80
2021/03/14 03:11:00;;;;;;;2.00;0.90;;;;;;;16.64;60.01;100382.50;6208124;23;20025;-80
2021/03/14 03:13:28;;;;;;;1.88;0.90;;;;;;;16.63;60.05;100380.75;6209662;23;20017;-80
2021/03/14 03:16:10;;;;;;;2.22;0.90;;;;;;;16.63;59.90;100381.63;6184660;23;20013;-80
2021/03/14 03:21:06;;;;;;;4.43;0.98;;;;;;;16.61;60.12;100386.00;6253538;22;20063;-80
2021/03/14 03:26:25;;;;;;;2.65;0.90;;;;;;;16.63;59.97;100393.75;6241939;22;20059;-80
2021/03/14 03:29:19;;;;;;;2.67;0.90;;;;;;;16.61;60.02;100399.00;6215114;23;20076;-80
2021/03/14 03:32:23;;;;;;;4.05;1.00;;;;;;;16.63;60.05;100411.94;6214834;23;20004;-80
2021/03/14 03:35:26;;;;;;;2.88;0.95;;;;;;;16.63;60.20;100415.38;6251826;23;20027;-80
2021/03/14 03:38:48;;;;;;;1.85;0.60;;;;;;;16.63;59.94;100415.38;6209871;23;20009;-80
2021/03/14 03:41:59;;;;;;;2.17;0.90;;;;;;;16.62;59.78;100418.88;6210019;23;20036;-80
2021/03/14 03:47:21;;;;;;;2.60;1.08;;;;;;;16.62;60.06;100433.63;6210607;23;20013;-80
2021/03/14 03:49:53;;;;;;;1.90;0.80;;;;;;;16.59;59.79;100420.66;6235625;23;20016;-80
2021/03/14 03:52:25;;;;;;;2.65;1.10;;;;;;;16.59;59.90;100429.31;6227330;22;20028;-80
2021/03/14 03:54:55;;;;;;;1.85;0.82;;;;;;;16.59;59.92;100428.44;6241617;23;20021;-80
2021/03/14 03:57:22;;;;;;;1.77;0.80;;;;;;;16.60;59.98;100438.81;6190010;23;20028;-79
2021/03/14 04:00:10;;;;;;;4.10;0.85;;;;;;;16.60;59.80;100445.75;6189054;23;20024;-79
2021/03/14 04:05:18;;;;;;;2.42;0.85;;;;;;;16.60;60.09;100453.56;6235652;23;20015;-80
2021/03/14 04:07:49;;;;;;;1.63;0.75;;;;;;;16.62;59.87;100465.66;6236185;23;20021;-79
2021/03/14 04:10:27;;;;;;;3.03;0.90;;;;;;;16.60;59.79;100472.59;6237165;23;20015;-79
2021/03/14 04:16:17;;;;;;;3.30;0.82;;;;;;;16.59;59.78;100473.47;6237590;23;20023;-79
2021/03/14 04:18:52;;;;;;;2.30;0.93;;;;;;;16.58;59.61;100481.28;6236107;23;20009;-79
2021/03/14 04:21:59;;;;;;;1.50;0.70;;;;;;;16.59;59.65;100475.19;6238092;23;20009;-79
2021/03/14 04:24:29;;;;;;;1.23;0.60;;;;;;;16.59;59.67;100488.19;6238655;23;20000;-79
2021/03/14 04:27:13;;;;;;;2.58;0.95;;;;;;;16.56;59.80;100485.63;6236416;23;19991;-79
2021/03/14 04:36:32;;;;;;;1.85;0.70;;;;;;;16.56;59.63;100504.66;6241322;22;20055;-79
2021/03/14 04:42:08;;;;;;;1.58;0.50;;;;;;;16.57;59.56;100515.91;6234141;22;20021;-79
2021/03/14 04:44:38;;;;;;;2.35;0.77;;;;;;;16.60;59.66;100518.50;6240962;23;20032;-79
2021/03/14 04:47:08;;;;;;;2.78;0.90;;;;;;;16.59;59.27;100517.66;6241733;23;20001;-79
2021/03/14 04:53:14;;;;;;;2.60;0.80;;;;;;;16.64;59.12;100536.63;6210993;23;19916;-80
2021/03/14 04:55:47;;;;;;;1.20;0.52;;;;;;;16.62;59.05;100530.59;6208702;23;20009;-79
2021/03/14 04:58:33;;;;;;;2.47;0.73;;;;;;;16.66;58.92;100544.41;6187288;23;20084;-80
2021/03/14 05:01:04;;;;;;;2.22;0.80;;;;;;;16.64;58.89;100547.03;6213104;23;20008;-80
2021/03/14 05:06:23;;;;;;;1.35;0.52;;;;;;;16.67;58.71;100561.72;6243452;22;20031;-80
2021/03/14 05:08:51;;;;;;;1.58;0.80;;;;;;;16.67;58.76;100559.97;6215589;23;20008;-80
2021/03/14 05:11:38;;;;;;;2.45;0.55;;;;;;;16.65;58.83;100564.31;6210792;23;19989;-80
2021/03/14 05:17:31;;;;;;;1.75;0.55;;;;;;;16.64;58.64;100562.63;6212814;23;20019;-80
2021/03/14 05:20:03;;;;;;;1.95;0.65;;;;;;;16.65;58.45;100569.50;6188091;23;19985;-80
2021/03/14 05:23:07;;;;;;;2.00;0.70;;;;;;;16.67;58.76;100572.97;6187869;23;20061;-80
2021/03/14 05:25:54;;;;;;;1.77;0.68;;;;;;;16.67;58.60;100580.75;6213811;23;20033;-80
2021/03/14 05:29:01;;;;;;;1.30;0.60;;;;;;;16.67;58.44;100585.94;6214168;23;20005;-79
2021/03/14 05:31:57;;;;;;;0.95;0.52;;;;;;;16.69;58.37;100590.28;6213980;23;20001;-80
2021/03/14 05:34:57;;;;;;;2.70;0.65;;;;;;;16.69;58.56;100590.28;6187301;23;20009;-80
2021/03/14 05:37:28;;;;;;;1.90;0.80;;;;;;;16.65;58.53;100592.91;6213461;23;20028;-80
2021/03/14 05:40:41;;;;;;;1.77;0.70;;;;;;;16.67;58.43;100604.13;6138269;23;20032;-80
2021/03/14 05:49:55;;;;;;;1.98;0.70;;;;;;;16.67;58.40;100605.88;6229975;22;20011;-80
2021/03/14 05:52:40;;;;;;;;;;;;;;;16.69;58.64;100622.31;6244658;22;20016;-80
2021/03/14 05:55:35;;;;;;;3.17;0.70;;;;;;;16.67;58.64;100616.28;6236723;22;19900;-80
2021/03/14 05:58:04;;;;;;;2.85;0.60;;;;;;;16.67;58.73;100624.94;6188458;23;20008;-81
2021/03/14 06:00:38;;;;;;;2.22;0.88;;;;;;;16.69;58.64;100635.31;6204454;22;19997;-80
2021/03/14 06:03:32;;;;;;;2.28;0.82;;;;;;;16.68;58.80;100628.41;6194511;23;20032;-80
2021/03/14 06:06:01;;;;;;;3.00;0.60;;;;;;;16.72;58.60;100639.63;6103489;23;20009;-80
2021/03/14 06:08:29;;;;;;;2.42;0.60;;;;;;;16.74;58.56;100645.66;6119083;23;19994;-80
2021/03/14 06:10:56;;;;;;;2.60;0.60;;;;;;;16.75;58.50;100648.25;6123022;23;19994;-79
2021/03/14 06:13:44;;;;;;;1.73;0.65;;;;;;;16.76;58.51;100646.50;6122784;23;20010;-80
2021/03/14 06:19:40;;;;;;;1.50;0.60;;;;;;;16.77;58.56;100650.84;6123041;23;20025;-80
2021/03/14 06:22:40;;;;;;;2.33;0.85;;;;;;;16.77;58.43;100658.66;6190294;22;20075;-79
2021/03/14 06:32:16;;;;;;;1.88;0.75;;;;;;;16.77;58.30;100680.28;6180822;23;20048;-80
2021/03/14 06:34:44;;;;;;;1.70;0.75;;;;;;;16.79;58.20;100683.75;6231814;22;20024;-81
2021/03/14 06:40:41;;;;;;;1.17;0.55;;;;;;;16.78;58.33;100697.59;6242426;22;20021;-81
2021/03/14 06:43:15;;;;;;;1.63;0.52;;;;;;;16.79;58.36;100701.94;6152277;23;19998;-80
2021/03/14 06:45:45;;;;;;;2.58;0.55;;;;;;;16.78;58.33;100702.78;6258826;22;20011;-80
2021/03/14 06:48:24;;;;;;;1.63;0.70;;;;;;;16.76;58.17;100704.53;6272147;22;20068;-80
2021/03/14 06:51:07;;;;;;;3.03;0.80;;;;;;;16.78;58.41;100710.59;6272137;22;20301;-79
2021/03/14 06:54:15;;;;;;;1.48;0.50;;;;;;;16.81;58.41;100712.31;6247282;22;20005;-79
2021/03/14 06:56:57;;;;;;;1.90;0.70;;;;;;;16.81;58.33;100710.59;6173094;23;20021;-81
2021/03/14 06:59:31;;;;;;;1.77;0.57;;;;;;;16.82;58.25;100722.72;6159289;22;20021;-81
2021/03/14 07:02:17;;;;;;;3.13;0.60;;;;;;;16.84;58.20;100725.31;6211506;23;20024;-80
2021/03/14 07:04:54;;;;;;;1.23;0.50;;;;;;;16.82;58.22;100729.66;6242356;23;20012;-80
2021/03/14 07:07:46;;;;;;;0.95;0.50;;;;;;;16.83;58.11;100737.44;6240708;23;20011;-80
2021/03/14 07:10:17;;;;;;;1.50;0.60;;;;;;;16.97;58.22;100747.72;6213472;23;20008;-80
2021/03/14 07:12:44;;;;;;;1.80;0.73;;;;;;;17.06;58.11;100755.44;6214255;23;20032;-79
2021/03/14 07:15:23;;;;;;;1.40;0.70;;;;;;;17.13;57.90;100761.44;6238571;23;20013;-79
2021/03/14 07:17:55;;;;;;;1.27;0.70;;;;;;;17.16;57.72;100758.84;6229343;23;19985;-78
2021/03/14 07:20:29;;;;;;;2.70;0.57;;;;;;;17.19;57.83;100777.00;6239314;23;20019;-80
2021/03/14 07:23:06;;;;;;;3.15;0.90;;;;;;;17.21;58.21;100777.00;6240279;23;20000;-79
2021/03/14 07:25:39;;;;;;;2.88;0.63;;;;;;;17.19;58.17;100776.16;6241175;23;19995;-79
2021/03/14 07:28:06;;;;;;;3.72;0.80;;;;;;;17.25;57.63;100778.69;6235678;23;20007;-80
2021/03/14 07:30:34;;;;;;;1.80;0.60;;;;;;;17.26;57.95;100783.00;6206973;23;20028;-79
2021/03/14 07:33:02;;;;;;;1.63;0.55;;;;;;;17.27;58.14;100795.16;6212076;23;20044;-79
2021/03/14 07:35:27;;;;;;;1.83;0.75;;;;;;;17.31;58.17;100794.25;6213322;23;20084;-80
2021/03/14 07:37:59;;;;;;;3.35;0.90;;;;;;;17.37;57.72;100801.13;6212123;23;20330;-79
2021/03/14 07:40:29;;;;;;;3.28;0.60;;;;;;;17.38;57.50;100806.31;6235843;23;20047;-80
2021/03/14 07:43:15;;;;;;;1.90;0.70;;;;;;;17.42;57.86;100810.63;6198327;23;20530;-78
2021/03/14 07:45:53;;;;;;;2.10;0.90;;;;;;;17.51;57.52;100813.97;6179821;23;20005;-80
2021/03/14 07:48:59;;;;;;;2.25;0.60;;;;;;;17.61;57.42;100819.09;6209376;23;20012;-81
2021/03/14 07:51:45;;;;;;;3.20;0.68;;;;;;;17.63;57.23;100832.09;6210444;23;20005;-80
2021/03/14 07:54:48;;;;;;;1.42;0.65;;;;;;;17.61;57.37;100833.84;6210625;23;19996;-81
2021/03/14 07:57:34;;;;;;;2.22;0.90;;;;;;;17.53;57.53;100838.25;6179609;23;20081;-81
2021/03/14 08:00:25;;;;;;;2.10;0.70;;;;;;;17.52;57.62;100853.00;6180158;23;19990;-81
2021/03/14 08:02:55;;;;;;;4.43;0.57;;;;;;;17.49;57.46;100847.84;6154941;23;20006;-81
2021/03/14 08:05:39;;;;;;;2.38;0.70;;;;;;;17.52;57.56;100857.34;6178686;23;20013;-81
2021/03/14 08:08:29;;;;;;;1.45;0.65;;;;;;;17.52;57.55;100862.56;6178769;23;20006;-80
2021/03/14 08:11:06;;;;;;;1.73;0.63;;;;;;;17.53;57.43;100859.06;6158374;23;20036;-81
2021/03/14 08:13:42;;;;;;;2.25;0.70;;;;;;;17.56;57.36;100864.25;6153215;23;20008;-81
2021/03/14 08:16:16;;;;;;;3.22;0.63;;;;;;;17.58;57.40;100881.56;6154943;23;20053;-81
2021/03/14 08:18:57;;;;;;;2.38;0.75;;;;;;;17.58;57.41;100876.38;6154904;23;20041;-80
2021/03/14 08:21:34;;;;;;;1.55;0.68;;;;;;;17.59;57.23;100887.63;6179310;23;20066;-81
2021/03/14 08:24:14;;;;;;;3.53;0.70;;;;;;;17.54;57.62;100884.22;6162081;22;20802;-81
2021/03/14 08:26:40;;;;;;;1.85;0.63;;;;;;;17.53;57.44;100893.78;6241408;23;20089;-83
2021/03/14 08:29:15;;;;;;;1.38;0.52;;;;;;;17.54;57.34;100895.50;6214517;23;19993;-81
2021/03/14 08:32:07;;;;;;;1.95;0.70;;;;;;;17.61;57.16;100906.69;6241352;23;20065;-81
2021/03/14 08:34:45;;;;;;;2.35;0.73;;;;;;;17.73;56.76;100905.75;6216754;23;19985;-81
2021/03/14 08:37:32;;;;;;;1.95;0.70;;;;;;;17.74;56.85;100921.34;6216500;23;19988;-81
2021/03/14 08:40:14;;;;;;;2.00;0.70;;;;;;;17.71;56.83;100913.56;6216817;23;20031;-81
2021/03/14 08:43:04;;;;;;;1.83;0.70;;;;;;;17.82;56.84;100913.50;6216762;23;20004;-81
2021/03/14 08:45:50;;;;;;;1.25;0.68;;;;;;;17.87;56.44;100922.97;6217030;23;20068;-81
2021/03/14 08:48:25;;;;;;;1.40;0.60;;;;;;;17.80;56.55;100915.22;6243155;23;20000;-81
2021/03/14 08:51:10;;;;;;;2.13;0.75;;;;;;;17.79;56.67;100927.38;6244366;23;20000;-81
2021/03/14 08:57:11;;;;;;;3.15;0.80;;;;;;;17.76;56.69;100930.00;6243929;22;20015;-81
2021/03/14 09:02:12;;;;;;;1.90;0.65;;;;;;;17.79;56.56;100943.00;6239892;22;20025;-80
2021/03/14 09:07:17;;;;;;;1.55;0.77;;;;;;;17.82;56.38;100949.94;6169930;23;20029;-80
2021/03/14 09:09:53;;;;;;;2.67;0.80;;;;;;;17.83;56.44;100952.53;6104307;23;20010;-81
2021/03/14 09:12:26;;;;;;;3.03;0.77;;;;;;;17.89;56.51;100960.28;6153115;23;20010;-81
2021/03/14 09:15:05;;;;;;;1.40;0.52;;;;;;;17.87;56.48;100964.63;6166608;22;20009;-82
2021/03/14 09:17:59;;;;;;;1.55;0.70;;;;;;;17.89;56.37;100972.44;6194334;23;20021;-80
2021/03/14 09:21:03;;;;;;;2.22;0.70;;;;;;;17.87;56.12;100974.19;6219684;22;20028;-80
2021/03/14 09:23:48;;;;;;;0.65;0.47;;;;;;;17.85;56.15;100986.34;6242679;23;20031;-81
2021/03/14 09:29:11;;;;;;;1.90;0.70;;;;;;;17.78;56.38;100995.91;6212362;22;20023;-81
2021/03/14 09:31:43;;;;;;;1.30;0.50;;;;;;;17.77;56.73;100995.91;6228327;22;20020;-80
2021/03/14 09:34:19;;;;;;;2.13;0.77;;;;;;;17.75;56.62;100998.56;6218931;22;20017;-81
2021/03/14 09:37:08;;;;;;;2.42;0.70;;;;;;;17.76;56.58;101007.22;6243776;22;20031;-80
2021/03/14 09:39:39;;;;;;;2.67;0.80;;;;;;;17.73;56.97;100996.84;6193665;22;20056;-81
2021/03/14 09:42:20;;;;;;;1.85;0.70;;;;;;;17.75;56.69;101008.97;6244712;22;20000;-82
2021/03/14 09:45:30;;;;;;;2.53;0.60;;;;;;;17.78;56.59;101008.94;6234737;22;20000;-82
2021/03/14 09:48:20;;;;;;;2.47;0.90;;;;;;;17.82;56.65;101009.81;6217012;22;20009;-81
2021/03/14 09:51:09;;;;;;;1.38;0.60;;;;;;;17.80;56.72;101019.34;6217261;23;20089;-82
2021/03/14 09:53:57;;;;;;;4.60;0.80;;;;;;;17.76;56.66;101021.09;6223647;23;20029;-81
2021/03/14 09:56:53;;;;;;;1.58;0.70;;;;;;;17.80;56.72;101016.75;6210769;23;20459;-81
2021/03/14 09:59:40;;;;;;;2.38;0.90;;;;;;;17.80;56.63;101008.94;6211208;23;20023;-81
2021/03/14 10:05:49;;;;;;;3.22;0.90;;;;;;;17.84;56.67;101031.50;6242568;23;20080;-81
2021/03/14 10:12:11;;;;;;;5.00;1.08;;;;;;;17.81;56.49;101041.88;6238900;22;20031;-82
2021/03/14 10:20:51;;;;;;;3.28;0.95;;;;;;;17.80;56.86;101058.38;6237089;22;20027;-82
2021/03/14 10:23:49;;;;;;;2.83;0.85;;;;;;;17.79;56.52;101059.25;6241399;23;20043;-81
2021/03/14 10:29:42;;;;;;;3.67;0.90;;;;;;;17.82;56.55;101067.09;6240814;23;20519;-81
2021/03/14 10:32:23;;;;;;;4.15;1.00;;;;;;;17.82;56.56;101077.50;6238592;23;20084;-81
2021/03/14 10:40:26;;;;;;;2.97;0.98;;;;;;;17.85;56.51;101070.50;6231164;22;20024;-80
2021/03/14 10:43:22;;;;;;;5.20;1.10;;;;;;;17.82;56.39;101078.34;6235782;22;20004;-79
2021/03/14 10:46:27;;;;;;;3.80;1.05;;;;;;;17.76;56.59;101091.38;6213407;23;19985;-80
2021/03/14 10:54:56;;;;;;;2.97;0.85;;;;;;;17.84;56.13;101092.22;6211412;23;20092;-81
2021/03/14 11:03:46;;;;;;;3.30;0.88;;;;;;;17.87;56.16;101118.22;6232217;22;20039;-79
2021/03/14 11:06:42;;;;;;;4.70;1.23;;;;;;;17.88;55.86;101113.91;6239253;23;19992;-79
2021/03/14 11:09:35;;;;;;;3.63;0.90;;;;;;;17.94;55.70;101120.81;6176703;23;20030;-79
2021/03/14 11:12:30;;;;;;;2.92;0.90;;;;;;;17.96;55.74;101127.72;6171318;23;20012;-79
2021/03/14 11:15:42;;;;;;;2.90;1.10;;;;;;;17.92;55.76;101125.16;6146804;23;19986;-79
2021/03/14 11:24:17;;;;;;;4.38;1.05;;;;;;;17.80;56.00;101133.88;6232364;23;20031;-78
2021/03/14 11:27:07;;;;;;;3.25;0.70;;;;;;;17.83;55.74;101136.50;6210728;23;20072;-79
2021/03/14 11:29:59;;;;;;;3.53;1.00;;;;;;;17.84;55.87;101139.09;6175320;23;19994;-78
2021/03/14 11:32:27;;;;;;;2.92;0.98;;;;;;;17.88;55.83;101147.75;6215048;22;20075;-78
2021/03/14 11:35:13;;;;;;;2.05;0.80;;;;;;;17.87;55.57;101141.66;6234669;22;20012;-78
2021/03/14 11:38:17;;;;;;;4.47;1.13;;;;;;;17.91;55.66;101149.47;6241384;23;20020;-79
2021/03/14 11:40:44;;;;;;;2.72;0.93;;;;;;;17.92;55.47;101148.59;6264009;23;20554;-78
2021/03/14 11:43:22;;;;;;;3.45;1.00;;;;;;;17.94;55.29;101144.25;6249259;22;20343;-80
2021/03/14 11:48:39;;;;;;;2.75;0.90;;;;;;;17.99;54.85;101134.69;6264526;22;20038;-80
2021/03/14 11:51:06;;;;;;;2.83;1.48;;;;;;;18.03;54.87;101137.25;6259602;23;20015;-79
2021/03/14 11:53:34;;;;;;;6.03;1.00;;;;;;;18.05;54.88;101145.03;6208081;23;20008;-80
2021/03/14 11:56:13;;;;;;;3.75;0.90;;;;;;;18.03;54.95;101149.38;6236492;22;20007;-80
2021/03/14 11:58:47;;;;;;;4.53;1.10;;;;;;;18.03;54.90;101151.97;6298234;22;20008;-80
2021/03/14 12:01:15;;;;;;;3.00;1.00;;;;;;;18.05;55.34;101152.84;6268900;22;20084;-79
2021/03/14 12:03:45;;;;;;;3.90;1.15;;;;;;;18.05;55.04;101164.16;6261193;23;20036;-80
2021/03/14 12:06:13;;;;;;;3.65;1.17;;;;;;;18.06;54.96;101173.69;6235943;23;20337;-79
2021/03/14 12:08:44;;;;;;;3.58;1.08;;;;;;;18.05;55.27;101171.06;6259079;22;20024;-80
2021/03/14 12:11:14;;;;;;;2.13;0.90;;;;;;;18.00;55.19;101173.69;6187035;23;20023;-80
2021/03/14 12:16:18;;;;;;;4.60;1.10;;;;;;;18.04;55.19;101182.38;6270756;22;20054;-80
2021/03/14 12:18:44;;;;;;;6.03;1.30;;;;;;;18.05;55.23;101184.97;6265699;22;20011;-80
2021/03/14 12:21:12;;;;;;;2.78;0.90;;;;;;;18.08;55.06;101200.56;6297070;22;20020;-80
2021/03/14 12:23:40;;;;;;;3.28;0.90;;;;;;;18.11;55.33;101193.63;6268953;22;19991;-79
2021/03/14 12:28:56;;;;;;;2.75;1.20;;;;;;;18.08;55.20;101203.19;6299433;22;20038;-80
2021/03/14 12:33:58;;;;;;;3.60;1.10;;;;;;;18.08;55.16;101208.38;6268546;23;20021;-79
2021/03/14 12:36:28;;;;;;;2.30;0.90;;;;;;;18.13;55.21;101215.31;6240484;23;20034;-80
2021/03/14 12:45:30;;;;;;;4.28;1.00;;;;;;;18.19;55.12;101210.94;6278584;22;20018;-80
2021/03/14 12:51:10;;;;;;;5.95;1.08;;;;;;;18.18;54.97;101217.03;6272278;22;20056;-80
2021/03/14 12:59:43;;;;;;;7.82;1.75;;;;;;;18.22;56.02;101226.53;6278551;22;20054;-80
2021/03/14 13:02:12;;;;;;;3.47;1.20;;;;;;;18.20;56.29;101224.81;6222963;22;20068;-79
2021/03/14 13:04:49;;;;;;;5.13;1.10;;;;;;;18.18;56.57;101231.78;6267321;22;20004;-79
2021/03/14 13:07:33;;;;;;;3.45;1.15;;;;;;;18.17;56.55;101222.25;6272466;22;19988;-79
2021/03/14 13:10:21;;;;;;;8.52;1.23;;;;;;;18.13;56.92;101230.94;6247682;22;19992;-81
2021/03/14 13:16:20;;;;;;;4.95;1.20;;;;;;;18.11;57.01;101227.47;6248505;22;20023;31
2021/03/14 13:29:14;;;;;;;2.70;1.00;;;;;;;18.14;57.08;101228.34;6274505;22;20042;-81
2021/03/14 13:37:14;;;;;;;4.45;1.20;;;;;;;18.14;57.17;101230.94;6292577;22;20030;-79
2021/03/14 13:42:51;;;;;;;4.07;1.00;;;;;;;18.13;57.30;101233.53;6300301;22;20024;-80
2021/03/14 13:45:32;;;;;;;4.15;1.30;;;;;;;18.11;57.32;101236.16;6302580;22;20007;-80
2021/03/14 13:48:41;;;;;;;5.53;1.20;;;;;;;18.13;57.50;101237.00;6209532;23;20020;-80
2021/03/14 13:51:29;;;;;;;4.13;1.30;;;;;;;18.12;57.38;101230.09;6209588;23;20012;-79
2021/03/14 13:56:33;;;;;;;2.75;0.95;;;;;;;18.11;57.33;101250.91;6267485;23;20024;-79
2021/03/14 14:11:03;;;;;;;3.17;1.00;;;;;;;18.11;57.90;101250.91;6267791;22;20027;-78
2021/03/14 14:13:48;;;;;;;4.57;1.25;;;;;;;18.11;58.18;101245.72;6286402;22;20003;-79
2021/03/14 14:16:21;;;;;;;5.35;1.20;;;;;;;18.06;57.98;101244.00;6240755;23;20475;-79
2021/03/14 14:18:47;;;;;;;4.10;1.20;;;;;;;18.07;57.87;101243.13;6218934;23;20016;-79
2021/03/14 14:21:36;;;;;;;4.13;1.50;;;;;;;18.08;57.87;101242.25;6242366;23;20052;-79
2021/03/14 14:24:08;;;;;;;5.65;1.30;;;;;;;18.08;57.95;101242.25;6241462;23;20072;-79
2021/03/14 14:26:55;;;;;;;5.25;1.13;;;;;;;18.08;58.16;101246.59;6216557;23;20004;-79
2021/03/14 14:29:26;;;;;;;3.38;1.20;;;;;;;18.10;57.75;101255.28;6241024;23;19989;-79
2021/03/14 14:31:53;;;;;;;3.92;1.38;;;;;;;18.12;57.88;101256.13;6241300;23;20035;-79
2021/03/14 14:34:21;;;;;;;5.32;1.45;;;;;;;18.11;57.76;101254.38;6239884;23;20092;-78
2021/03/14 14:37:05;;;;;;;4.22;1.38;;;;;;;18.13;57.80;101252.63;6239820;23;20012;-79
2021/03/14 14:39:36;;;;;;;3.10;1.02;;;;;;;18.11;57.81;101257.00;6240646;23;20002;-79
2021/03/14 14:42:21;;;;;;;3.45;1.30;;;;;;;18.14;57.60;101263.91;6193077;23;19989;-80
2021/03/14 14:45:07;;;;;;;4.03;1.20;;;;;;;18.13;57.80;101272.63;6241547;23;19992;-79
2021/03/14 14:47:35;;;;;;;3.22;1.13;;;;;;;18.11;57.79;101267.41;6242665;23;19988;-79
2021/03/14 15:16:01;;;;;;;3.45;0.85;;;;;;;18.04;57.90;101258.75;6253736;22;20020;-80
2021/03/14 15:21:50;;;;;;;2.80;1.05;;;;;;;18.02;58.21;101276.13;6302105;22;20038;-80
2021/03/14 15:24:23;;;;;;;4.13;1.23;;;;;;;18.01;58.14;101263.13;6248813;22;20021;-80
2021/03/14 15:27:00;;;;;;;2.47;0.97;;;;;;;18.02;58.34;101264.84;6240057;23;20005;-80
2021/03/14 15:29:30;;;;;;;2.90;1.20;;;;;;;18.01;58.25;101255.31;6241306;23;19989;-79
2021/03/14 15:32:33;;;;;;;4.22;1.50;;;;;;;18.02;58.33;101264.84;6216341;23;20040;-80
2021/03/14 15:35:00;;;;;;;2.50;1.08;;;;;;;18.00;58.35;101253.56;6244270;22;19993;-80
2021/03/14 15:37:37;;;;;;;4.65;1.23;;;;;;;18.03;58.41;101266.56;6259000;22;20027;-80
2021/03/14 15:40:26;;;;;;;3.17;1.20;;;;;;;18.01;58.41;101266.59;6271162;23;20020;-80
2021/03/14 15:42:56;;;;;;;4.47;0.85;;;;;;;18.00;58.42;101256.19;6272650;22;20011;-80
2021/03/14 15:45:23;;;;;;;4.57;1.23;;;;;;;18.01;58.33;101260.53;6271268;23;19991;-79
2021/03/14 15:47:52;;;;;;;2.95;1.17;;;;;;;18.00;58.25;101253.56;6270934;22;20026;-79
2021/03/14 15:50:26;;;;;;;3.83;1.13;;;;;;;17.99;58.30;101250.09;6269268;22;20027;-79
2021/03/14 15:52:53;;;;;;;4.63;1.27;;;;;;;18.04;58.92;101255.28;6300518;22;20031;-79
2021/03/14 15:55:21;;;;;;;4.28;1.33;;;;;;;18.02;58.50;101252.69;6300186;22;20008;-79
2021/03/14 15:57:47;;;;;;;8.70;1.33;;;;;;;18.04;58.58;101247.47;6104188;22;4294013;-79
2021/03/14 16:00:13;;;;;;;4.30;1.30;;;;;;;18.07;58.56;101260.47;6273789;22;20011;-79
2021/03/14 16:02:41;;;;;;;4.97;1.38;;;;;;;18.08;58.47;101250.06;6298217;22;20019;-79
2021/03/14 16:05:14;;;;;;;4.57;1.33;;;;;;;18.11;58.50;101253.53;6272375;22;19983;-79
2021/03/14 16:08:06;;;;;;;5.75;1.40;;;;;;;18.13;58.63;101254.38;6301118;22;20034;-79
2021/03/14 16:10:31;;;;;;;9.25;1.60;;;;;;;18.13;58.61;101251.78;6265327;22;20020;-79
2021/03/14 16:12:59;;;;;;;6.18;1.60;;;;;;;18.10;58.67;101247.47;6215570;23;20015;-81
2021/03/14 16:15:26;;;;;;;9.75;1.48;;;;;;;18.12;58.62;101252.63;6261605;23;20004;-78
2021/03/14 16:17:56;;;;;;;6.75;1.42;;;;;;;18.07;58.40;101245.75;6272070;22;20189;-79
2021/03/14 16:20:23;;;;;;;3.38;1.17;;;;;;;18.07;58.13;101247.44;6243291;22;20023;-78
2021/03/14 16:22:48;;;;;;;6.30;1.30;;;;;;;18.04;58.33;101247.47;6270265;22;19999;-79